createdAt,value
2022-12-26T00:03:28.420Z,23.48
2022-12-26T00:08:51.325Z,23.58
2022-12-26T00:14:15.566Z,19.00
2022-12-26T00:19:37.755Z,23.58
2022-12-26T00:24:59.633Z,20.60
2022-12-26T00:30:21.498Z,21.13
2022-12-26T00:35:43.335Z,20.15
2022-12-26T00:41:06.590Z,21.25
2022-12-26T00:46:28.608Z,20.02
2022-12-26T00:51:50.507Z,21.45
2022-12-26T00:57:12.448Z,20.77
2022-12-26T01:02:34.456Z,20.02
2022-12-26T01:08:20.310Z,19.65
2022-12-26T01:13:38.613Z,20.50
2022-12-26T01:19:00.647Z,19.90
2022-12-26T01:24:22.481Z,19.05
2022-12-26T01:29:44.321Z,20.27
2022-12-26T01:35:06.522Z,24.23
2022-12-26T01:40:28.398Z,22.40
2022-12-26T01:45:51.203Z,23.73
2022-12-26T01:51:14.916Z,22.98
2022-12-26T01:56:40.266Z,22.23
2022-12-26T02:02:03.740Z,25.33
2022-12-26T02:07:26.553Z,25.40
2022-12-26T02:12:49.821Z,23.90
2022-12-26T02:18:11.672Z,23.55
2022-12-26T02:23:48.414Z,25.10
2022-12-26T02:29:34.765Z,25.65
2022-12-26T02:40:25.981Z,24.23
2022-12-26T02:46:05.456Z,25.77
2022-12-26T02:51:49.054Z,26.23
2022-12-26T02:57:18.479Z,24.00
2022-12-26T03:02:52.533Z,25.90
2022-12-26T03:08:21.730Z,26.77
2022-12-26T03:13:45.349Z,25.52
2022-12-26T03:19:10.755Z,25.35
2022-12-26T03:24:33.659Z,26.15
2022-12-26T03:29:55.551Z,24.20
2022-12-26T03:35:17.632Z,22.77
2022-12-26T03:41:14.376Z,23.40
2022-12-26T03:46:58.048Z,25.63
2022-12-26T03:52:57.291Z,24.77
2022-12-26T03:58:32.529Z,22.85
2022-12-26T04:03:56.395Z,22.38
2022-12-26T04:09:31.377Z,23.42
2022-12-26T04:15:00.146Z,21.48
2022-12-26T04:20:35.328Z,21.33
2022-12-26T04:26:10.932Z,22.13
2022-12-26T04:31:47.466Z,18.63
2022-12-26T04:37:18.461Z,19.98
2022-12-26T04:42:44.083Z,19.75
2022-12-26T04:48:06.199Z,19.63
2022-12-26T04:53:28.044Z,20.13
2022-12-26T04:58:50.029Z,17.52
2022-12-26T05:04:17.335Z,18.88
2022-12-26T05:09:39.252Z,17.55
2022-12-26T05:15:01.270Z,19.63
2022-12-26T05:20:23.149Z,18.67
2022-12-26T05:25:46.049Z,16.77
2022-12-26T05:31:13.917Z,18.05
2022-12-26T05:36:56.899Z,15.30
2022-12-26T05:42:18.767Z,14.38
2022-12-26T05:47:40.702Z,16.75
2022-12-26T05:53:02.585Z,15.95
2022-12-26T05:58:24.441Z,16.20
2022-12-26T06:03:49.173Z,16.30
2022-12-26T06:09:11.122Z,17.23
2022-12-26T06:14:33.043Z,13.93
2022-12-26T06:19:55.149Z,12.18
2022-12-26T06:25:17.123Z,14.05
2022-12-26T06:30:38.933Z,13.05
2022-12-26T06:36:09.522Z,13.50
2022-12-26T06:41:31.660Z,12.93
2022-12-26T06:46:53.529Z,13.10
2022-12-26T06:52:15.476Z,11.88
2022-12-26T06:57:37.347Z,13.05
2022-12-26T07:02:59.306Z,12.20
2022-12-26T07:08:21.214Z,12.45
2022-12-26T07:13:43.722Z,13.20
2022-12-26T07:19:06.444Z,12.30
2022-12-26T07:24:28.335Z,12.45
2022-12-26T07:29:50.176Z,12.38
2022-12-26T07:35:12.029Z,10.50
2022-12-26T07:40:33.913Z,11.95
2022-12-26T07:45:57.943Z,11.15
2022-12-26T07:51:19.883Z,10.02
2022-12-26T07:56:42.101Z,10.38
2022-12-26T08:02:04.150Z,9.73
2022-12-26T08:07:26.252Z,9.70
2022-12-26T08:12:48.204Z,10.73
2022-12-26T08:18:10.122Z,10.57
2022-12-26T08:23:32.132Z,10.43
2022-12-26T08:28:55.687Z,11.32
2022-12-26T08:34:17.706Z,11.27
2022-12-26T08:39:39.689Z,10.75
2022-12-26T08:45:01.606Z,12.25
2022-12-26T08:50:23.552Z,11.52
2022-12-26T08:55:45.398Z,10.70
2022-12-26T09:01:13.960Z,10.45
2022-12-26T09:06:38.299Z,11.55
2022-12-26T09:12:00.276Z,11.00
2022-12-26T09:17:22.189Z,11.60
2022-12-26T09:22:44.323Z,10.73
2022-12-26T09:28:06.268Z,12.25
2022-12-26T09:33:29.255Z,12.55
2022-12-26T09:38:52.212Z,12.07
2022-12-26T09:44:48.314Z,12.38
2022-12-26T09:50:10.102Z,11.65
2022-12-26T09:55:50.387Z,11.70
2022-12-26T10:01:18.922Z,11.73
2022-12-26T10:06:48.201Z,12.43
2022-12-26T10:12:37.631Z,12.60
2022-12-26T10:18:26.547Z,13.05
2022-12-26T10:23:58.318Z,12.57
2022-12-26T10:29:23.576Z,14.15
2022-12-26T10:34:48.216Z,13.63
2022-12-26T10:40:20.853Z,13.60
2022-12-26T10:45:58.468Z,13.23
2022-12-26T10:51:20.513Z,12.52
2022-12-26T10:56:42.784Z,14.57
2022-12-26T11:02:22.094Z,13.20
2022-12-26T11:07:52.102Z,12.93
2022-12-26T11:13:21.908Z,14.02
2022-12-26T11:18:51.350Z,14.35
2022-12-26T11:24:19.210Z,13.60
2022-12-26T11:29:41.103Z,14.27
2022-12-26T11:35:03.679Z,14.80
2022-12-26T11:40:36.825Z,15.25
2022-12-26T11:45:59.057Z,15.65
2022-12-26T11:51:42.140Z,13.70
2022-12-26T11:57:16.502Z,14.48
2022-12-26T12:02:40.810Z,13.65
2022-12-26T12:08:15.591Z,14.13
2022-12-26T12:14:12.832Z,14.30
2022-12-26T12:19:58.713Z,14.32
2022-12-26T12:25:44.966Z,14.00
2022-12-26T12:31:38.298Z,12.23
2022-12-26T12:37:06.049Z,11.15
2022-12-26T12:43:01.636Z,10.35
2022-12-26T12:48:33.655Z,10.20
2022-12-26T12:54:14.859Z,10.98
2022-12-26T13:00:10.741Z,10.50
2022-12-26T13:05:52.836Z,9.50
2022-12-26T13:11:35.578Z,9.60
2022-12-26T13:17:03.637Z,10.05
2022-12-26T13:22:30.714Z,9.77
2022-12-26T13:27:56.822Z,10.20
2022-12-26T13:33:19.107Z,10.65
2022-12-26T13:38:56.340Z,10.13
2022-12-26T13:44:18.179Z,8.75
2022-12-26T13:49:41.721Z,9.73
2022-12-26T13:55:06.645Z,9.77
2022-12-26T14:00:45.861Z,9.43
2022-12-26T14:06:38.748Z,9.13
2022-12-26T14:12:43.010Z,9.45
2022-12-26T14:18:29.112Z,8.75
2022-12-26T14:24:12.275Z,8.82
2022-12-26T14:29:58.898Z,9.80
2022-12-26T14:35:35.902Z,8.93
2022-12-26T14:41:05.725Z,9.20
2022-12-26T14:46:30.762Z,8.52
2022-12-26T14:51:54.134Z,9.25
2022-12-26T14:57:45.533Z,9.25
2022-12-26T15:03:24.067Z,8.70
2022-12-26T15:09:11.713Z,8.85
2022-12-26T15:15:04.607Z,8.43
2022-12-26T15:20:54.788Z,9.27
2022-12-26T15:26:48.109Z,9.05
2022-12-26T15:32:13.431Z,9.00
2022-12-26T15:38:11.484Z,9.00
2022-12-26T15:44:08.412Z,9.57
2022-12-26T15:50:03.563Z,9.90
2022-12-26T15:55:37.528Z,10.13
2022-12-26T16:00:59.800Z,10.57
2022-12-26T16:06:40.236Z,11.45
2022-12-26T16:12:02.431Z,10.05
2022-12-26T16:17:24.457Z,10.88
2022-12-26T16:22:46.457Z,10.93
2022-12-26T16:28:12.250Z,10.38
2022-12-26T16:33:42.543Z,10.43
2022-12-26T16:39:09.185Z,11.63
2022-12-26T16:49:57.149Z,11.30
2022-12-26T16:55:31.158Z,11.20
2022-12-26T17:01:11.870Z,10.32
2022-12-26T17:06:38.689Z,11.18
2022-12-26T17:12:04.218Z,15.88
2022-12-26T17:17:29.103Z,9.80
2022-12-26T17:22:57.448Z,9.18
2022-12-26T17:28:19.231Z,9.07
2022-12-26T17:33:47.551Z,9.88
2022-12-26T17:39:21.398Z,9.43
2022-12-26T17:44:45.651Z,9.00
2022-12-26T17:50:07.671Z,9.02
2022-12-26T17:55:29.615Z,8.75
2022-12-26T18:00:52.057Z,8.27
2022-12-26T18:06:15.780Z,8.00
2022-12-26T18:11:37.641Z,8.40
2022-12-26T18:17:01.078Z,8.45
2022-12-26T18:22:22.941Z,10.02
2022-12-26T18:27:45.198Z,9.23
2022-12-26T18:33:12.367Z,10.52
2022-12-26T18:38:34.254Z,10.32
2022-12-26T18:43:56.305Z,10.18
2022-12-26T18:49:18.228Z,11.65
2022-12-26T18:54:40.606Z,10.45
2022-12-26T19:00:03.825Z,11.65
2022-12-26T19:05:28.694Z,9.70
2022-12-26T19:10:50.720Z,10.60
2022-12-26T19:16:12.761Z,10.52
2022-12-26T19:21:35.566Z,10.40
2022-12-26T19:26:57.486Z,9.35
2022-12-26T19:32:19.415Z,8.93
2022-12-26T19:37:41.448Z,9.45
2022-12-26T19:43:03.784Z,9.18
2022-12-26T19:48:25.819Z,9.50
2022-12-26T19:53:48.421Z,8.52
2022-12-26T19:59:10.267Z,8.90
2022-12-26T20:04:32.190Z,9.63
2022-12-26T20:09:54.119Z,8.77
2022-12-26T20:15:16.060Z,10.27
2022-12-26T20:20:37.909Z,8.60
2022-12-26T20:26:07.321Z,8.50
2022-12-26T20:31:31.602Z,8.40
2022-12-26T20:36:53.550Z,7.95
2022-12-26T20:42:15.407Z,7.70
2022-12-26T20:47:37.294Z,8.57
2022-12-26T20:52:59.196Z,9.02
2022-12-26T20:58:25.333Z,8.82
2022-12-26T21:03:48.279Z,8.32
2022-12-26T21:09:10.167Z,8.50
2022-12-26T21:14:32.031Z,8.50
2022-12-26T21:19:53.957Z,9.10
2022-12-26T21:25:15.802Z,8.98
2022-12-26T21:30:37.744Z,8.57
2022-12-26T21:35:59.659Z,8.10
2022-12-26T21:41:21.739Z,8.68
2022-12-26T21:46:43.671Z,8.85
2022-12-26T21:52:08.043Z,8.60
2022-12-26T21:57:29.944Z,8.68
2022-12-26T22:02:52.058Z,7.68
2022-12-26T22:08:15.020Z,8.15
2022-12-26T22:13:42.288Z,7.85
2022-12-26T22:19:04.421Z,8.68
2022-12-26T22:24:26.358Z,7.80
2022-12-26T22:29:48.261Z,7.72
2022-12-26T22:35:16.526Z,8.07
2022-12-26T22:40:40.960Z,8.15
2022-12-26T22:46:02.899Z,7.65
2022-12-26T22:51:26.619Z,8.60
2022-12-26T22:56:48.766Z,8.00
2022-12-26T23:02:10.765Z,9.77
2022-12-26T23:07:33.298Z,8.32
2022-12-26T23:12:56.135Z,9.30
2022-12-26T23:18:40.862Z,9.20
2022-12-26T23:24:02.770Z,10.18
2022-12-26T23:29:24.661Z,10.02
2022-12-26T23:34:46.571Z,9.63
2022-12-26T23:40:11.283Z,9.85
2022-12-26T23:45:33.120Z,10.75
2022-12-26T23:51:02.999Z,9.85
2022-12-26T23:56:24.897Z,10.32
